Tiempo atmosférico en la estación meteorológica de La Pobla de Benifassà-Fredes, Castelló/Castellón (1174 m.)



Fecha
DESCASC
Temp. máxima en grados centígrados (hora)
DESCASC
Temp. mínima en grados centígrados (hora)
DESCASC
Temp. media en grados centígrados
DESCASC
Racha de viento máxima en m/sg (hora)
DESCASC
Velocidad máxima media en intervalos de 10 minutos(hora)
DESCASC
Precipitaciones diarias en mm
DESCASC
Precipitaciones de 00:00 a 06:00 en mm
DESCASC
Precipitaciones de 06:00 a 12:00 en mm
DESCASC
Precipitaciones de 12:00 a 18:00 en mm
DESCASC
Precipitaciones de 18:00 a 24:00 en mm
DESCASC
05-04-2020 -- (--) -- (--) -- -- (--) -- (--) -- 0 0 0.6 --
04-04-2020 -- (--) -- (--) -- 9.72 (16:40) 4.44 (15:40) 0.2 0.2 0 0 0
03-04-2020 -- (--) -- (--) -- 13.89 (02:50) 8.61 (02:10) 0 0 0 0 0
02-04-2020 -- (--) -- (--) -- -- (--) -- (--) 1.4 0.2 0.6 0.6 0
01-04-2020 -- (--) -- (--) -- -- (--) -- (--) -- 1.6 19.6 -- 0.4
31-03-2020 -- (--) -- (--) -- 12.22 (09:20) 6.11 (10:10) 50.8 10 27.4 6.4 7
30-03-2020 -- (--) -- (--) -- 18.61 (05:50) 11.39 (07:50) 0 0 0 0 0
29-03-2020 -- (--) -- (--) -- 15.28 (23:59) 9.72 (23:59) 0 0 0 0 0
28-03-2020 -- (--) -- (--) -- 6.11 (21:40) 3.89 (21:20) 0.2 0.2 0 0 0
27-03-2020 -- (--) -- (--) -- 8.06 (13:10) 3.61 (13:20) 0.2 0 0.2 0 0
26-03-2020 -- (--) -- (--) -- -- (--) -- (--) 2.2 0 0.2 2 0
25-03-2020 -- (--) -- (--) -- -- (--) -- (--) 6.6 2.4 0.2 4 0
24-03-2020 -- (--) -- (--) -- 12.5 (01:40) 6.39 (07:40) 7.4 4.2 0.6 1 1.6
23-03-2020 -- (--) -- (--) -- 11.67 (23:30) 6.39 (23:20) 53.6 2 36 10 5.6
22-03-2020 -- (--) -- (--) -- 6.39 (22:10) 3.33 (23:30) 6.6 0 0.8 5 0.8
21-03-2020 -- (--) -- (--) -- -- (--) -- (--) -- 0 -- 0 --
20-03-2020 -- (--) -- (--) -- 9.17 (12:20) 5.56 (12:20) 0.4 0 0.4 0 0
19-03-2020 -- (--) -- (--) -- -- (--) -- (--) -- 0 -- 0 0
18-03-2020 -- (--) -- (--) -- -- (--) -- (--) 0 0 0 0 0
17-03-2020 -- (--) -- (--) -- -- (--) -- (--) -- 15.8 -- 0.8 0
16-03-2020 -- (--) -- (--) -- 18.33 (18:40) 9.72 (18:40) 45 1.4 8.6 18.2 16.8
15-03-2020 -- (--) -- (--) -- 9.44 (21:10) 4.44 (14:20) 0.2 0 0 0 0.2
14-03-2020 -- (--) -- (--) -- 9.72 (01:00) 5.83 (01:00) 0 0 0 0 0
13-03-2020 -- (--) -- (--) -- 7.5 (23:20) 5 (23:30) 0 0 0 0 0
12-03-2020 -- (--) -- (--) -- 7.5 (14:00) 3.61 (06:50) 0 0 0 0 0
11-03-2020 -- (--) -- (--) -- 14.72 (04:10) 9.17 (04:20) 0 0 0 0 0
10-03-2020 -- (--) -- (--) -- 19.72 (06:40) 11.67 (09:00) 0 0 0 0 0
09-03-2020 -- (--) -- (--) -- 31.94 (18:20) 18.33 (09:00) 0 0 0 0 0
08-03-2020 -- (--) -- (--) -- 18.33 (01:00) 10 (00:20) 0 0 0 0 0

Gráficas

Temp. máximas Temp. mínimas Temp. medias Precipitaciones Rachas de viento máximas Velocidades máximas media en intervalos de 10 minutos

Datos horarios

Fecha y hora oficial Temperatura (ºC) Velocidad del viento (km/h) Dirección del viento Racha (km/h) Dirección de racha Precipitación (mm) Presión (hPa) Tendencia (hPa) Humedad (%)
2020-04-06 23:00:00 5.5 2 Sudeste 11 Este 0 -- -- 97
2020-04-06 22:00:00 6.2 3 Este 14 Este 0.2 -- -- 97
2020-04-06 21:00:00 6.5 5 Este 11 Este 0 -- -- 96
2020-04-06 20:00:00 6.6 4 Este 14 Este 0 -- -- 96
2020-04-06 19:00:00 6.8 5 Este 13 Este 0 -- -- 96
2020-04-06 18:00:00 7 6 Este 14 Este 0 -- -- 96
2020-04-06 17:00:00 7.4 7 Este 22 Este 0 -- -- 95
2020-04-06 16:00:00 7.8 7 Este 18 Este 0 -- -- 93
2020-04-06 15:00:00 8.5 7 Este 22 Este 0 -- -- 89
2020-04-06 14:00:00 10.6 12 Este 24 Este 0 -- -- 77
2020-04-06 13:00:00 11 10 Este 24 Este 0 -- -- 69
2020-04-06 12:00:00 9.7 11 Este 21 Este 0 -- -- 71
2020-04-06 11:00:00 8.2 9 Este 15 Este 0 -- -- 71
2020-04-06 10:00:00 6.2 3 Este 9 Este 0 -- -- 85
2020-04-06 09:00:00 5.6 2 Este 9 Este 0 -- -- 83
2020-04-06 08:00:00 3 2 Sudeste 11 Sudeste 0 -- -- 90
2020-04-06 07:00:00 3.3 0 Calma 8 Sur 0 -- -- 91
2020-04-06 06:00:00 4.4 2 Sudeste 8 Sudeste 0 -- -- 96
2020-04-06 05:00:00 4.4 4 Sudeste 12 Sudeste 0 -- -- 96
2020-04-06 04:00:00 4 2 Este 7 Este 0 -- -- 95
2020-04-06 03:00:00 5 3 Este 11 Sudeste 0 -- -- 96
2020-04-06 02:00:00 5.3 4 Sudeste 13 Sudeste 0 -- -- 96
2020-04-06 01:00:00 5.4 4 Sudeste 11 Sudeste 0 -- -- 96
2020-04-06 00:00:00 5.2 4 Sudeste 17 Sudeste 0 -- -- 96
2020-04-05 23:00:00 5.3 4 Este 10 Sudeste 0 -- -- 96
2020-04-05 22:00:00 -- -- -- -- -- -- -- -- --
2020-04-05 21:00:00 5.8 4 Sudeste 17 Sudeste 0 -- -- 96
2020-04-05 20:00:00 6.3 8 Este 16 Este 0 -- -- 96
2020-04-05 19:00:00 6.3 8 Este 15 Este 0 -- -- 96
2020-04-05 18:00:00 6.5 6 Este 14 Este 0 -- -- 95
2020-04-05 17:00:00 6.4 7 Este 17 Sudeste 0.6 -- -- 94
2020-04-05 16:00:00 7 6 Sudeste 22 Este 0 -- -- 89
2020-04-05 15:00:00 7.9 12 Este 23 Este 0 -- -- 81
2020-04-05 14:00:00 7 8 Este 27 Este 0 -- -- 85
2020-04-05 13:00:00 9.3 12 Este 27 Este 0 -- -- 71
2020-04-05 12:00:00 9.2 12 Este 27 Este 0 -- -- 66
2020-04-05 11:00:00 7.4 9 Este 20 Sudeste 0 -- -- 70
2020-04-05 10:00:00 6.1 5 Sudeste 19 Sudeste 0 -- -- 72
2020-04-05 09:00:00 4.6 4 Sudeste 15 Este 0 -- -- 75
2020-04-05 08:00:00 2.6 4 Este 16 Sudeste 0 -- -- 78
2020-04-05 07:00:00 2.1 4 Sudeste 21 Sudeste 0 -- -- 77
2020-04-05 06:00:00 2 5 Sudeste 17 Sudeste 0 -- -- 76
2020-04-05 05:00:00 2.3 5 Sudeste 18 Sudeste 0 -- -- 72
2020-04-05 04:00:00 2.7 6 Sudeste 26 Este 0 -- -- 72
2020-04-05 03:00:00 2.5 9 Sudeste 28 Sudeste 0 -- -- 77
2020-04-05 02:00:00 3 10 Sudeste 32 Sudeste 0 -- -- 76
2020-04-05 01:00:00 3.1 9 Sudeste 39 Este 0 -- -- 75
2020-04-05 00:00:00 2.9 10 Sudeste 31 Sudeste 0 -- -- 81
2020-04-04 23:00:00 2.9 8 Sudeste 23 Sudeste 0 -- -- 86
2020-04-04 22:00:00 3.4 7 Sudeste 22 Este -- -- -- 91
2020-04-04 21:00:00 3.9 11 Sudeste 29 Sudeste 0 -- -- 88
2020-04-04 20:00:00 5.9 14 Sudeste 31 Sudeste 0 -- -- 92
2020-04-04 19:00:00 6.7 12 Sudeste 28 Sudeste 0 -- -- 93
2020-04-04 18:00:00 7 13 Sudeste 30 Nordeste 0 -- -- 92
2020-04-04 17:00:00 7 12 Sudeste 35 Este 0 -- -- 93
2020-04-04 16:00:00 7.5 14 Este 30 Este 0 -- -- 90
2020-04-04 15:00:00 7.5 12 Este 30 Este 0 -- -- 88
2020-04-04 14:00:00 7.7 10 Este 31 Este 0 -- -- 85
2020-04-04 13:00:00 9.1 13 Este 28 Nordeste 0 -- -- 72
2020-04-04 12:00:00 9.3 11 Este 30 Sudeste 0 -- -- 64
2020-04-04 11:00:00 9.1 12 Este 24 Este 0 -- -- 64
2020-04-04 10:00:00 6.8 7 Sudeste 19 Sudeste 0 -- -- 75
2020-04-04 09:00:00 5.7 5 Sudeste 15 Sudeste 0 -- -- 78
2020-04-04 08:00:00 2.8 4 Sudeste 16 Sur 0 -- -- 86
2020-04-04 07:00:00 2 2 Sudeste 8 Sudeste 0 -- -- 93
2020-04-04 06:00:00 2.6 0 Calma 3 Sudeste 0 -- -- 95
2020-04-04 05:00:00 2.8 0 Calma 6 Sur 0 -- -- 94
2020-04-04 04:00:00 3.1 2 Sur 5 Sur 0.2 -- -- 95
2020-04-04 03:00:00 3.4 2 Sudeste 5 Sur 0 -- -- 94
2020-04-04 02:00:00 3.1 0 Calma 5 Sur 0 -- -- 95
2020-04-04 01:00:00 -- 3 Sur 6 Sur 0 -- -- --
2020-04-04 00:00:00 2.6 4 Sudoeste 8 Sudoeste 0 -- -- 95
2020-04-03 23:00:00 3.1 3 Sudoeste 7 Sur 0 -- -- 94
2020-04-03 22:00:00 3.6 4 Sur 7 Sur 0 -- -- 93
2020-04-03 21:00:00 4 0 Calma 3 Sur 0 -- -- 90
2020-04-03 20:00:00 6.1 2 Sudeste 8 Este 0 -- -- 87
2020-04-03 19:00:00 6.9 3 Este 8 Este 0 -- -- 85
2020-04-03 18:00:00 7.4 6 Este 14 Este 0 -- -- 82
2020-04-03 17:00:00 7.7 5 Este 14 Este 0 -- -- 80
2020-04-03 16:00:00 7.4 7 Este 17 Este 0 -- -- 82
2020-04-03 15:00:00 8.4 4 Sudoeste 16 Noroeste 0 -- -- 68
2020-04-03 14:00:00 8.8 5 Oeste 18 Oeste 0 -- -- 69
2020-04-03 13:00:00 7.2 9 Noroeste 27 Oeste 0 -- -- 73
2020-04-03 12:00:00 5.9 16 Noroeste 32 Noroeste 0 -- -- 78
2020-04-03 11:00:00 3.7 20 Oeste 37 Oeste 0 -- -- 82
2020-04-03 10:00:00 1.7 23 Oeste 39 Oeste 0 -- -- 86
2020-04-03 09:00:00 0.1 22 Oeste 38 Oeste 0 -- -- 90
2020-04-03 08:00:00 -0.5 23 Oeste 35 Oeste 0 -- -- 92
2020-04-03 07:00:00 -0.1 21 Oeste 40 Oeste 0 -- -- 92
2020-04-03 06:00:00 0.4 23 Oeste 37 Oeste 0 -- -- 93
2020-04-03 05:00:00 0.8 25 Oeste 41 Oeste 0 -- -- 95
2020-04-03 04:00:00 0.8 24 Oeste 45 Noroeste 0 -- -- 96
2020-04-03 03:00:00 1.1 28 Oeste 50 Noroeste 0 -- -- 97
2020-04-03 02:00:00 2.1 29 Oeste 44 Oeste 0 -- -- 97
2020-04-03 01:00:00 3.3 20 Oeste 36 Oeste 0 -- -- 97
2020-04-03 00:00:00 4.6 8 Oeste 21 Oeste 0 -- -- 98
2020-04-02 23:00:00 4.3 0 Calma 9 Oeste 0 -- -- 98
2020-04-02 22:00:00 4.6 3 Oeste 8 Noroeste 0 -- -- 98
2020-04-02 21:00:00 4.5 3 Oeste 10 Noroeste 0 -- -- 98
2020-04-02 20:00:00 4.6 6 Oeste 14 Oeste 0 -- -- 98
2020-04-02 19:00:00 5 7 Noroeste 20 Norte 0 -- -- 98
2020-04-02 18:00:00 5.5 8 Noroeste 17 Noroeste 0.4 -- -- 97
2020-04-02 17:00:00 5.9 9 Noroeste 22 Noroeste 0 -- -- 98
2020-04-02 16:00:00 5.3 9 Noroeste 22 Noroeste 0.2 -- -- 98
2020-04-02 15:00:00 5 10 Noroeste 19 Noroeste 0 -- -- 98
2020-04-02 14:00:00 4.8 8 Noroeste 20 Noroeste 0 -- -- 98
2020-04-02 13:00:00 6.2 12 Noroeste 23 Noroeste 0 -- -- 98
2020-04-02 12:00:00 4.3 14 Oeste 23 Oeste 0 -- -- 98
2020-04-02 11:00:00 3.6 13 Oeste 28 Oeste 0 -- -- 98
2020-04-02 10:00:00 3.5 13 Oeste 29 Oeste 0 -- -- 98
2020-04-02 09:00:00 -- -- -- -- -- 0.2 -- -- --
2020-04-02 08:00:00 -- -- -- -- -- 0.2 -- -- --
2020-04-02 07:00:00 -- -- -- -- -- 0.2 -- -- --
2020-04-02 06:00:00 -- -- -- -- -- 0.2 -- -- --
2020-04-02 05:00:00 -- -- -- -- -- 0 -- -- --
2020-04-02 04:00:00 -- -- -- -- -- 0 -- -- --
2020-04-02 03:00:00 -- -- -- -- -- 0 -- -- --
2020-04-02 02:00:00 -- -- -- -- -- 0 -- -- --
2020-04-02 01:00:00 -- -- -- -- -- 0 -- -- --
2020-04-02 00:00:00 -- -- -- -- -- 0 -- -- --
2020-04-01 23:00:00 -- -- -- -- -- 0 -- -- --
2020-04-01 22:00:00 -- -- -- -- -- 0 -- -- --
2020-04-01 21:00:00 -- -- -- -- -- 0 -- -- --
2020-04-01 20:00:00 3.7 8 Noroeste 19 Noroeste 0 -- -- 98
2020-04-01 19:00:00 4 13 Oeste 23 Oeste 0.4 -- -- 98
2020-04-01 18:00:00 3.6 5 Oeste -- -- 6.4 -- -- 98
2020-04-01 17:00:00 -- -- -- -- -- 8.2 -- -- --
2020-04-01 16:00:00 -- -- -- -- -- 2.4 -- -- --
2020-04-01 15:00:00 -- -- -- -- -- 3.2 -- -- --
2020-04-01 14:00:00 -- -- -- -- -- -- -- -- --
2020-04-01 13:00:00 4.6 11 Nordeste 32 Nordeste 1.8 -- -- 98
2020-04-01 12:00:00 -- -- -- -- -- 8.4 -- -- --
2020-04-01 11:00:00 -- -- -- -- -- 4.4 -- -- --
2020-04-01 10:00:00 -- -- -- -- -- 2 -- -- --
2020-04-01 09:00:00 -- -- -- -- -- 2 -- -- --
2020-04-01 08:00:00 -- -- -- -- -- 2 -- -- --
2020-04-01 07:00:00 -- -- -- -- -- 0.8 -- -- --
2020-04-01 06:00:00 -- -- -- -- -- 0.6 -- -- --
2020-04-01 05:00:00 -- -- -- -- -- 0.4 -- -- --
2020-04-01 04:00:00 -- -- -- -- -- 0.2 -- -- --
2020-04-01 03:00:00 -- -- -- -- -- 0 -- -- --
2020-04-01 02:00:00 -- -- -- -- -- 0.2 -- -- --
2020-04-01 01:00:00 4.4 17 Este 44 Este 0.2 -- -- 97
2020-04-01 00:00:00 4.5 19 Este 39 Nordeste 1 -- -- 97
2020-03-31 23:00:00 4.3 15 Nordeste 36 Este 0.4 -- -- 97
2020-03-31 22:00:00 4.3 14 Este 35 Este 0.2 -- -- 97
2020-03-31 21:00:00 4 13 Este 30 Este 0.4 -- -- 97
2020-03-31 20:00:00 3.8 16 Este 43 Nordeste 2.4 -- -- 97
2020-03-31 19:00:00 3.8 13 Este 38 Nordeste 2.6 -- -- 97
2020-03-31 18:00:00 3.8 14 Este 32 Este 1 -- -- 97
2020-03-31 17:00:00 3.7 12 Nordeste 36 Nordeste 2.8 -- -- 97
2020-03-31 16:00:00 3.6 14 Nordeste 41 Este 0.6 -- -- 97
2020-03-31 15:00:00 3.4 16 Este 36 Este 0.8 -- -- 97
2020-03-31 14:00:00 3.4 18 Este 44 Este 0.4 -- -- 97
2020-03-31 13:00:00 3.3 19 Este 40 Este 0.8 -- -- 97
2020-03-31 12:00:00 3.1 18 Este 42 Este 2.4 -- -- 97
2020-03-31 11:00:00 2.9 20 Este 44 Este 1.8 -- -- 97
2020-03-31 10:00:00 2.5 18 Este 44 Nordeste 4.2 -- -- 97
2020-03-31 09:00:00 2.5 16 Este 38 Este 4.2 -- -- 97
2020-03-31 08:00:00 2.4 18 Este 36 Este 7.4 -- -- 96
2020-03-31 07:00:00 2.4 15 Este 36 Nordeste 7.4 -- -- 97
2020-03-31 06:00:00 1.9 18 Nordeste 38 Nordeste 4.2 -- -- 96
2020-03-31 05:00:00 1.2 11 Este 24 Nordeste 4.2 -- -- 96
2020-03-31 04:00:00 0.6 10 Nordeste 17 Nordeste 1.6 -- -- 96
2020-03-31 03:00:00 0.3 5 Nordeste 17 Nordeste 0 -- -- 96
2020-03-31 02:00:00 -1.4 4 Norte 13 Nordeste 0 -- -- 95
2020-03-31 01:00:00 -2.3 7 Oeste 16 Oeste 0 -- -- 93
2020-03-31 00:00:00 -2.6 10 Oeste 24 Oeste 0 -- -- 92
2020-03-30 23:00:00 -2.5 15 Oeste 26 Oeste 0 -- -- 91
2020-03-30 22:00:00 -2.5 16 Oeste 28 Oeste 0 -- -- 89
2020-03-30 21:00:00 -2.3 15 Oeste 26 Noroeste 0 -- -- 89
2020-03-30 20:00:00 -1.7 17 Oeste 31 Oeste 0 -- -- 82
2020-03-30 19:00:00 -1.7 15 Oeste 30 Oeste 0 -- -- 82
2020-03-30 18:00:00 -1.7 18 Oeste 28 Noroeste 0 -- -- 87
2020-03-30 17:00:00 -1.7 17 Oeste 33 Oeste 0 -- -- 85
2020-03-30 16:00:00 -2 20 Oeste 33 Oeste 0 -- -- 87
2020-03-30 15:00:00 -2.4 21 Oeste 41 Noroeste 0 -- -- 89
2020-03-30 14:00:00 -2.3 24 Oeste 55 Oeste 0 -- -- 85
2020-03-30 13:00:00 -0.1 30 Oeste 59 Oeste 0 -- -- 60
2020-03-30 12:00:00 -0.2 33 Oeste 55 Oeste 0 -- -- 64
2020-03-30 11:00:00 -1.1 36 Oeste 60 Noroeste 0 -- -- 69
2020-03-30 10:00:00 -1 37 Oeste 62 Oeste 0 -- -- 68
2020-03-30 09:00:00 -0.8 34 Oeste 62 Oeste 0 -- -- 72
2020-03-30 08:00:00 -0.4 39 Oeste 66 Oeste 0 -- -- 71
2020-03-30 07:00:00 0.7 38 Oeste 64 Oeste 0 -- -- 83
2020-03-30 06:00:00 1 37 Oeste 67 Noroeste 0 -- -- 84
2020-03-30 05:00:00 1.5 34 Oeste 55 Noroeste 0 -- -- 87
2020-03-30 04:00:00 1.9 31 Oeste 56 Oeste 0 -- -- 87
2020-03-30 03:00:00 2.2 34 Noroeste 56 Oeste 0 -- -- 86
2020-03-30 02:00:00 2.6 36 Noroeste 61 Noroeste 0 -- -- 84
2020-03-30 01:00:00 2.7 31 Oeste 59 Oeste 0 -- -- 82
2020-03-30 00:00:00 3.3 35 Oeste 55 Oeste 0 -- -- 80
2020-03-29 23:00:00 4 27 Oeste 46 Noroeste 0 -- -- 74
2020-03-29 22:00:00 5 22 Oeste 42 Noroeste 0 -- -- 70
2020-03-29 21:00:00 6.2 18 Oeste 42 Oeste 0 -- -- 65
2020-03-29 20:00:00 8.2 18 Oeste 36 Oeste 0 -- -- 51
2020-03-29 19:00:00 10.1 18 Noroeste 37 Noroeste 0 -- -- 40
2020-03-29 18:00:00 11.9 17 Noroeste 33 Noroeste 0 -- -- 37
2020-03-29 17:00:00 13 15 Oeste 33 Oeste 0 -- -- 38
2020-03-29 16:00:00 13.2 15 Oeste 40 Oeste 0 -- -- 42
2020-03-29 15:00:00 13.1 16 Oeste 45 Oeste 0 -- -- 44
2020-03-29 14:00:00 12.3 21 Oeste 45 Oeste 0 -- -- 49
2020-03-29 13:00:00 11.9 17 Oeste 49 Noroeste 0 -- -- 51
2020-03-29 12:00:00 10.4 20 Oeste 42 Noroeste 0 -- -- 53
2020-03-29 11:00:00 8.6 17 Oeste 36 Oeste 0 -- -- 56
2020-03-29 10:00:00 6.9 18 Oeste 31 Oeste 0 -- -- 58
2020-03-29 09:00:00 4.9 21 Oeste 37 Oeste 0 -- -- 60
2020-03-29 08:00:00 3.5 21 Oeste 33 Oeste 0 -- -- 65
2020-03-29 07:00:00 4.8 19 Oeste 31 Oeste 0 -- -- 67
2020-03-29 06:00:00 5.5 19 Oeste 32 Oeste 0 -- -- 63
2020-03-29 05:00:00 5.5 17 Oeste 26 Oeste 0 -- -- 63
2020-03-29 03:00:00 5.4 14 Oeste 24 Sudoeste 0 -- -- 66
2020-03-29 01:00:00 4.8 13 Oeste 21 Oeste 0 -- -- 71
2020-03-29 00:00:00 3.9 12 Oeste 15 Oeste 0 -- -- 75
2020-03-28 23:00:00 3.9 10 Oeste 16 Oeste 0 -- -- 77
2020-03-28 22:00:00 4.2 13 Oeste 22 Oeste 0 -- -- 76
2020-03-28 21:00:00 4.3 12 Oeste 21 Oeste 0 -- -- 74
2020-03-28 20:00:00 3.9 10 Oeste 15 Oeste 0 -- -- 78
2020-03-28 19:00:00 6.2 0 Calma 4 Sudeste 0 -- -- 74
2020-03-28 18:00:00 7.4 2 Este 7 Oeste 0 -- -- 68
2020-03-28 17:00:00 7.9 3 Noroeste 13 Noroeste 0 -- -- 64
2020-03-28 16:00:00 7.6 2 Noroeste 9 Norte 0 -- -- 65
2020-03-28 15:00:00 7.1 3 Nordeste 14 Noroeste 0 -- -- 64
2020-03-28 14:00:00 7.3 6 Oeste 14 Norte 0 -- -- 68
2020-03-28 13:00:00 5.9 3 Norte 9 Nordeste 0 -- -- 71
2020-03-28 12:00:00 5.9 5 Noroeste 13 Noroeste 0 -- -- 69
2020-03-28 11:00:00 5.3 2 Noroeste 19 Noroeste 0 -- -- 71
2020-03-28 10:00:00 4.7 7 Noroeste 21 Oeste 0 -- -- 78
2020-03-28 09:00:00 3.6 7 Noroeste 18 Noroeste 0 -- -- 82
2020-03-28 08:00:00 2.7 6 Oeste 15 Noroeste 0 -- -- 84
2020-03-28 07:00:00 2.1 3 Noroeste 18 Norte 0 -- -- 87
2020-03-28 06:00:00 1.9 9 Noroeste 21 Noroeste 0 -- -- 88
2020-03-28 05:00:00 1.8 5 Noroeste 15 Norte 0 -- -- 88
2020-03-28 04:00:00 1.9 3 Noroeste 12 Norte 0 -- -- 87
2020-03-28 03:00:00 1.5 4 Oeste 14 Noroeste 0.2 -- -- 88
2020-03-28 02:00:00 1.5 0 Calma 5 Este 0 -- -- 77
2020-03-28 01:00:00 1.9 3 Este 13 Este 0 -- -- 74
2020-03-28 00:00:00 2.4 6 Este 15 Este 0 -- -- 70
2020-03-27 23:00:00 3 4 Nordeste 9 Nordeste 0 -- -- 66
2020-03-27 22:00:00 2.4 5 Nordeste 10 Nordeste 0 -- -- 73
2020-03-27 21:00:00 0.5 4 Noroeste 4 Noroeste 0 -- -- 81
2020-03-27 20:00:00 0.8 0 Calma 5 Sudeste 0 -- -- 79
2020-03-27 19:00:00 3 0 Calma 10 Este 0 -- -- 74
2020-03-27 18:00:00 4.5 3 Sudeste 19 Este 0 -- -- 65
2020-03-27 17:00:00 4.9 7 Este 21 Este -- -- -- 64
2020-03-27 16:00:00 6.4 12 Este 23 Este 0 -- -- 55
2020-03-27 15:00:00 6.6 10 Este 28 Este 0 -- -- 45
2020-03-27 14:00:00 7 10 Este 29 Este 0 -- -- 49
2020-03-27 13:00:00 5.3 11 Este 22 Este 0 -- -- 64
2020-03-27 12:00:00 3.7 5 Este 12 Este 0 -- -- 72
2020-03-27 11:00:00 2.7 6 Oeste 15 Oeste 0 -- -- 84
2020-03-27 10:00:00 2.2 10 Oeste 16 Oeste 0 -- -- 88
2020-03-27 09:00:00 2.4 3 Este 10 Este 0 -- -- 84
2020-03-27 08:00:00 0.2 3 Nordeste 9 Este 0.2 -- -- 97
2020-03-27 07:00:00 0 6 Este 13 Este 0 -- -- 97
2020-03-27 06:00:00 0.1 4 Sudeste 10 Este 0 -- -- 97
2020-03-27 05:00:00 0 4 Este 10 Este 0 -- -- 97
2020-03-27 04:00:00 -0.1 0 Calma 4 Sudeste 0 -- -- 96
2020-03-27 03:00:00 -0.2 0 Calma 7 Este 0 -- -- 96
2020-03-27 02:00:00 -0.2 4 Este 9 Este 0 -- -- 96
2020-03-27 01:00:00 -0.3 3 Nordeste 10 Este 0 -- -- 96
2020-03-27 00:00:00 -0.2 3 Este 12 Nordeste 0 -- -- 96
2020-03-26 23:00:00 -0.1 2 Este 6 Este 0 -- -- 95
2020-03-26 22:00:00 -0.1 2 Norte 10 Nordeste 0 -- -- 94
2020-03-26 21:00:00 0.6 2 Nordeste 4 Sudeste 0 -- -- 93
2020-03-26 20:00:00 1 2 Sudeste 6 Sudeste 0 -- -- 93
2020-03-26 19:00:00 1.3 3 Oeste 8 Sudoeste 0 -- -- 88
2020-03-26 18:00:00 2.3 3 Este 25 Noroeste 0 -- -- 86
2020-03-26 17:00:00 3.7 16 Noroeste 40 Oeste 0 -- -- 62
2020-03-26 16:00:00 5 19 Noroeste 52 Noroeste 0 -- -- 55
2020-03-26 15:00:00 5.3 22 Oeste 46 Noroeste 0 -- -- 60
2020-03-26 14:00:00 4 24 Oeste 49 Oeste 0 -- -- 79
2020-03-26 13:00:00 2.2 18 Noroeste 41 Noroeste 2 -- -- 86
2020-03-26 12:00:00 1.1 22 Noroeste 49 Noroeste 0.2 -- -- 86
2020-03-26 11:00:00 3.6 37 Noroeste 67 Noroeste 0 -- -- 79
2020-03-26 10:00:00 1.8 34 Noroeste 61 Oeste 0 -- -- 98
2020-03-26 09:00:00 -- -- -- -- -- 0 -- -- --
2020-03-26 08:00:00 -0.5 21 Oeste -- -- 0 -- -- 98
2020-03-26 07:00:00 -- -- -- -- -- 0 -- -- --
2020-03-26 06:00:00 -- -- -- -- -- 0 -- -- --
2020-03-26 05:00:00 -- -- -- -- -- 0 -- -- --
2020-03-26 04:00:00 -- -- -- -- -- 0 -- -- --
2020-03-26 03:00:00 -- -- -- -- -- 0 -- -- --
2020-03-26 02:00:00 -- -- -- -- -- 0 -- -- --
2020-03-26 01:00:00 -- -- -- -- -- 0 -- -- --
2020-03-26 00:00:00 -- -- -- -- -- 0 -- -- --
2020-03-25 23:00:00 -- -- -- -- -- 0 -- -- --
2020-03-25 22:00:00 -- -- -- -- -- 0 -- -- --
2020-03-25 21:00:00 -- -- -- -- -- 0 -- -- --
2020-03-25 20:00:00 0.7 0 Calma 6 Este 0 -- -- 98
2020-03-25 19:00:00 0.8 2 Este 6 Este 0 -- -- 98
2020-03-25 18:00:00 0.9 2 Sudeste 8 Sudeste 0.4 -- -- 98
2020-03-25 17:00:00 0.5 0 Calma 10 Sudeste 0.4 -- -- 98
2020-03-25 16:00:00 0.6 4 Este 10 Este 0.6 -- -- 98
2020-03-25 15:00:00 0.6 5 Este 10 Este 0.8 -- -- 98
2020-03-25 14:00:00 0.3 0 Calma 8 Este 1.2 -- -- 98
2020-03-25 13:00:00 -0.3 4 Este -- -- 0.6 -- -- 98
2020-03-25 12:00:00 -- -- -- -- -- 0 -- -- --
2020-03-25 11:00:00 -- -- -- -- -- 0 -- -- --
2020-03-25 10:00:00 -- -- -- -- -- 0 -- -- --
2020-03-25 09:00:00 -- -- -- -- -- 0 -- -- --
2020-03-25 08:00:00 -- -- -- -- -- 0 -- -- --
2020-03-25 07:00:00 -- -- -- -- -- 0.2 -- -- --
2020-03-25 06:00:00 -- -- -- -- -- 0 -- -- --
2020-03-25 05:00:00 -- -- -- -- -- 0 -- -- --
2020-03-25 04:00:00 -- -- -- -- -- 0.6 -- -- --
2020-03-25 03:00:00 1 13 Este 30 Este 0.6 -- -- 98
2020-03-25 02:00:00 1.6 12 Este 28 Este 0.8 -- -- 98
2020-03-25 01:00:00 -- 9 Este 21 Este 0.4 -- -- --
2020-03-25 00:00:00 1.8 12 Este 33 Este 0 -- -- 98
2020-03-24 23:00:00 2 14 Este 32 Este 0.2 -- -- 98
2020-03-24 22:00:00 2.4 9 Este 25 Este 0 -- -- 98
2020-03-24 21:00:00 2.4 13 Este 27 Este 0.2 -- -- 98
2020-03-24 20:00:00 2.3 10 Este 28 Este 0.6 -- -- 98
2020-03-24 19:00:00 2.9 7 Este 22 Este 0.6 -- -- 98
2020-03-24 18:00:00 2.8 4 Nordeste 18 Nordeste 0 -- -- 98
2020-03-24 17:00:00 2.9 8 Nordeste 25 Este 0.2 -- -- 98
2020-03-24 16:00:00 2.7 6 Este 22 Este 0 -- -- 98
2020-03-24 15:00:00 2.7 10 Este 29 Este 0 -- -- 98
2020-03-24 14:00:00 2.9 11 Este 35 Este 0.4 -- -- 98
2020-03-24 13:00:00 3.2 14 Este 31 Este 0.4 -- -- 98
2020-03-24 12:00:00 3 10 Este 30 Este 0 -- -- 98
2020-03-24 11:00:00 2.9 9 Este 29 Este 0 -- -- 98
2020-03-24 10:00:00 2.9 12 Este 30 Nordeste 0 -- -- 98
2020-03-24 09:00:00 3.2 13 Este 36 Este 0.4 -- -- 98
2020-03-24 08:00:00 3.8 18 Este 44 Este 0.2 -- -- 98
2020-03-24 07:00:00 4 15 Este 36 Este 0 -- -- 98
2020-03-24 06:00:00 4.2 15 Este 37 Este 0 -- -- 98
2020-03-24 05:00:00 4.3 15 Este 41 Este 0.2 -- -- 98
2020-03-24 04:00:00 4.6 16 Este 42 Este 0.6 -- -- 98
2020-03-24 03:00:00 5 14 Nordeste 36 Nordeste 1.4 -- -- 97
2020-03-24 02:00:00 4.8 17 Este 45 Sudeste 0.6 -- -- 97
2020-03-24 01:00:00 5 19 Este 42 Este 1.4 -- -- 97
2020-03-24 00:00:00 4.9 19 Este 42 Este 1 -- -- 97
2020-03-23 23:00:00 5 18 Este 38 Este 2.6 -- -- 97
2020-03-23 22:00:00 5 17 Este 41 Este 0 -- -- 97
2020-03-23 21:00:00 5.3 22 Este 40 Este 1.6 -- -- 97
2020-03-23 20:00:00 5.5 14 Este 34 Este 0.2 -- -- 97
2020-03-23 19:00:00 5.6 9 Este 23 Este 0.2 -- -- 97
2020-03-23 18:00:00 5.6 10 Este 24 Este 0 -- -- 97
2020-03-23 17:00:00 5.5 11 Este 25 Este 0.4 -- -- 97
2020-03-23 16:00:00 5 6 Nordeste 18 Nordeste 1.2 -- -- 96
2020-03-23 15:00:00 5.1 8 Nordeste 17 Norte 3.4 -- -- 97
2020-03-23 14:00:00 5 9 Nordeste 27 Sudeste 3.6 -- -- 97
2020-03-23 13:00:00 6.8 6 Este 13 Este 1.4 -- -- 98
2020-03-23 12:00:00 4.8 2 Este 17 Sur 1.4 -- -- 98
2020-03-23 11:00:00 3.4 5 Sur 17 Sudeste 15.6 -- -- 98
2020-03-23 10:00:00 4.7 5 Sur 18 Este 6.4 -- -- 97
2020-03-23 09:00:00 4.9 10 Este 22 Este 4 -- -- 97
2020-03-23 08:00:00 5.1 12 Este 25 Este 3.4 -- -- 97
2020-03-23 07:00:00 4.8 9 Este 20 Este 5.2 -- -- 97
2020-03-23 06:00:00 4.8 9 Este 26 Nordeste 1.8 -- -- 97
2020-03-23 05:00:00 4.8 6 Este 16 Este 0.2 -- -- 97
2020-03-23 04:00:00 4.7 6 Este 15 Este 0 -- -- 97
2020-03-23 03:00:00 4.5 7 Este 18 Este 0 -- -- 97
2020-03-23 02:00:00 4.3 5 Nordeste 17 Nordeste 0 -- -- 97
2020-03-23 01:00:00 4.6 9 Este 23 Este 0 -- -- 97
2020-03-23 00:00:00 4.6 10 Este 23 Este 0 -- -- 97
2020-03-22 23:00:00 4.9 8 Este 23 Este 0.8 -- -- 96
2020-03-22 22:00:00 4.8 9 Este 19 Este 0 -- -- 96
2020-03-22 21:00:00 4.2 8 Este 17 Este 0 -- -- 94
2020-03-22 20:00:00 4.4 7 Este 13 Nordeste 0 -- -- 94
2020-03-22 19:00:00 4.7 8 Este 19 Este 0 -- -- 95
2020-03-22 18:00:00 5.2 6 Este 13 Este 0 -- -- 94
2020-03-22 17:00:00 5.5 6 Este 13 Este 0 -- -- 94
2020-03-22 16:00:00 6 6 Este 17 Sudeste 0 -- -- 93
2020-03-22 15:00:00 5.9 9 Este 18 Este 0.2 -- -- 95
2020-03-22 14:00:00 5 3 Sudeste 15 Este 2.8 -- -- 97
2020-03-22 13:00:00 4.8 5 Este 21 Este 2 -- -- 97
2020-03-22 12:00:00 4.4 8 Este 21 Este 0.8 -- -- 96
2020-03-22 11:00:00 4.4 3 Este 12 Este 0 -- -- 95
2020-03-22 10:00:00 4.5 6 Este 13 Este 0 -- -- 95
2020-03-22 09:00:00 4.1 6 Este 12 Este 0 -- -- 94
2020-03-22 08:00:00 3.6 4 Este 9 Este 0 -- -- 94
2020-03-22 07:00:00 2.4 4 Este 8 Este 0 -- -- 96
2020-03-22 06:00:00 2.3 3 Nordeste 4 Nordeste 0 -- -- 96
2020-03-22 05:00:00 1.9 0 Calma 3 Norte 0 -- -- 96
2020-03-22 04:00:00 1.7 0 Calma 7 Sudeste 0 -- -- 95
2020-03-22 03:00:00 1.4 2 Este 9 Este 0 -- -- 94
2020-03-22 02:00:00 2 4 Este 8 Este 0 -- -- 95
2020-03-22 01:00:00 2 2 Este 3 Este 0 -- -- 94
2020-03-22 00:00:00 3 0 Calma 7 Este 0 -- -- 95
2020-03-21 23:00:00 3.5 3 Sudeste 9 Este 0 -- -- 96
2020-03-21 22:00:00 2.2 2 Este 9 Nordeste 0 -- -- 91
2020-03-21 21:00:00 3.6 0 Calma 9 Este 0 -- -- 94
2020-03-21 20:00:00 4.4 3 Este 13 Este 0 -- -- 95
2020-03-21 19:00:00 -- -- -- -- -- -- -- -- --
2020-03-21 18:00:00 5.2 7 Este 14 Este 0 -- -- 95
2020-03-21 17:00:00 5.8 5 Este 17 Este 0 -- -- 92
2020-03-21 16:00:00 6.8 8 Este 17 Este 0 -- -- 85
2020-03-21 15:00:00 7.4 8 Este 22 Este 0 -- -- 78
2020-03-21 14:00:00 7.7 4 Sudeste 18 Este 0 -- -- 76
2020-03-21 13:00:00 6.6 6 Este 17 Este 0 -- -- 77
2020-03-21 12:00:00 6.4 8 Este 17 Este 0 -- -- 79
2020-03-21 11:00:00 6 8 Este 19 Este 0 -- -- 79
2020-03-21 10:00:00 5 9 Este 17 Este 0 -- -- 86
2020-03-21 09:00:00 -- -- -- -- -- -- -- -- --
2020-03-21 08:00:00 3 3 Este 12 Este 0 -- -- 97
2020-03-21 07:00:00 2.5 4 Este 12 Este 0 -- -- 97
2020-03-21 06:00:00 2.7 7 Este 13 Este 0 -- -- 97
2020-03-21 05:00:00 2.5 6 Este 16 Este 0 -- -- 97
2020-03-21 04:00:00 2.5 6 Este 14 Este 0 -- -- 97
2020-03-21 03:00:00 2.1 7 Este 20 Este 0 -- -- 96
2020-03-21 02:00:00 1.8 11 Este 20 Este 0 -- -- 96
2020-03-21 01:00:00 1.5 9 Este 21 Este 0 -- -- 95
2020-03-21 00:00:00 2.2 10 Este 21 Este 0 -- -- 96
2020-03-20 23:00:00 3.5 9 Sudeste 18 Este 0 -- -- 97
2020-03-20 22:00:00 3.8 10 Este 19 Este 0 -- -- 97
2020-03-20 21:00:00 4.3 10 Este 23 Este 0 -- -- 97
2020-03-20 20:00:00 4.8 10 Este 21 Este 0 -- -- 97
2020-03-20 19:00:00 4.7 10 Este 23 Este 0 -- -- 97
2020-03-20 18:00:00 4.9 13 Este 30 Este 0 -- -- 97
2020-03-20 17:00:00 5.1 10 Este 25 Este -- -- -- 97
2020-03-20 16:00:00 4.8 12 Este 29 Este 0 -- -- 97
2020-03-20 15:00:00 4.9 14 Este 25 Este 0 -- -- 97
2020-03-20 14:00:00 4.9 14 Este 28 Este 0 -- -- 97
2020-03-20 13:00:00 5.6 14 Este 33 Este 0 -- -- 97
2020-03-20 12:00:00 4.7 16 Este 30 Este 0.2 -- -- 96
2020-03-20 11:00:00 4.6 13 Este 27 Este 0.2 -- -- 97
2020-03-20 10:00:00 4.2 7 Este 16 Este 0 -- -- 97
2020-03-20 09:00:00 3.8 9 Este 18 Este 0 -- -- 97
2020-03-20 08:00:00 3.6 9 Este 25 Este 0 -- -- 97
2020-03-20 07:00:00 3.5 14 Este 25 Este 0 -- -- 97
2020-03-20 06:00:00 3.5 11 Este 20 Sudeste 0 -- -- 96
2020-03-20 05:00:00 3.3 10 Este 19 Este 0 -- -- 96
2020-03-20 04:00:00 3 9 Este 20 Este 0 -- -- 96
2020-03-20 03:00:00 3 8 Este 18 Este 0 -- -- 96
2020-03-20 02:00:00 3 9 Este 21 Este 0 -- -- 96
2020-03-20 01:00:00 3 10 Este 21 Este 0 -- -- 96
2020-03-20 00:00:00 3.2 8 Este 24 Este 0 -- -- 96
2020-03-19 23:00:00 3.6 9 Este 23 Este 0 -- -- 95
2020-03-19 22:00:00 3.9 8 Este 26 Este 0 -- -- 95
2020-03-19 21:00:00 4.3 12 Este 25 Este 0 -- -- 95
2020-03-19 20:00:00 4.5 9 Este 21 Este 0 -- -- 94
2020-03-19 19:00:00 5.1 10 Este 28 Este 0 -- -- 93
2020-03-19 18:00:00 6 13 Este 26 Este 0 -- -- 91
2020-03-19 17:00:00 6.7 13 Este 26 Este -- -- -- 86
2020-03-19 16:00:00 7.8 11 Este 28 Este 0 -- -- 82
2020-03-19 15:00:00 9.2 9 Este 27 Este 0 -- -- 70
2020-03-19 14:00:00 8.7 12 Este 27 Este 0 -- -- 67
2020-03-19 13:00:00 9.1 12 Este 24 Este 0 -- -- 65
2020-03-19 12:00:00 9.2 13 Este 27 Este 0 -- -- 65
2020-03-19 11:00:00 9.3 10 Este 22 Este 0 -- -- 64
2020-03-19 10:00:00 7.5 11 Este 21 Este 0 -- -- 65
2020-03-19 09:00:00 -- -- -- -- -- -- -- -- --
2020-03-19 08:00:00 5.3 10 Este 17 Este 0 -- -- 64
2020-03-19 07:00:00 4.9 9 Este 17 Este 0 -- -- 68
2020-03-19 06:00:00 5.1 10 Este 16 Este 0 -- -- 66
2020-03-19 05:00:00 5.3 9 Este 19 Este 0 -- -- 67
2020-03-19 04:00:00 5.3 10 Este 18 Este 0 -- -- 65
2020-03-19 03:00:00 5 8 Este 15 Este 0 -- -- 70
2020-03-19 02:00:00 5.2 10 Este 17 Este 0 -- -- 73
2020-03-19 01:00:00 5.3 9 Este 17 Este 0 -- -- 74
2020-03-19 00:00:00 5 9 Este 13 Este 0 -- -- 75
2020-03-18 23:00:00 5.3 8 Este 17 Nordeste 0 -- -- 76
2020-03-18 22:00:00 5.2 9 Este 15 Este 0 -- -- 76
2020-03-18 21:00:00 4.6 6 Este 12 Este 0 -- -- 77
2020-03-18 20:00:00 5.6 4 Este 9 Nordeste 0 -- -- 73
2020-03-18 19:00:00 6.4 3 Norte 9 Nordeste 0 -- -- 72
2020-03-18 18:00:00 7.4 2 Norte 6 Este 0 -- -- 81
2020-03-18 17:00:00 8.1 3 Sudeste 8 Sudeste 0 -- -- 80
2020-03-18 16:00:00 8.6 4 Este 12 Este 0 -- -- 80
2020-03-18 15:00:00 8.9 7 Este 15 Este 0 -- -- 71
2020-03-18 14:00:00 9.6 7 Este 15 Este 0 -- -- 67
2020-03-18 13:00:00 9.4 6 Este 15 Este 0 -- -- 66
2020-03-18 12:00:00 9 5 Este 15 Nordeste 0 -- -- 74
2020-03-18 11:00:00 -- 5 Este 14 Nordeste 0 -- -- --
2020-03-18 10:00:00 7.2 5 Este 14 Este 0 -- -- 85
2020-03-18 09:00:00 6.8 5 Este -- -- 0 -- -- 79
2020-03-18 08:00:00 6.1 5 Norte 15 Nordeste 0 -- -- 84
2020-03-18 07:00:00 5.7 8 Nordeste 17 Nordeste 0 -- -- 86
2020-03-18 06:00:00 -- 6 Este 15 Este 0 -- -- --
2020-03-18 05:00:00 5.6 8 Nordeste -- -- 0 -- -- 85
2020-03-18 04:00:00 4.9 3 Nordeste 9 Este 0 -- -- 90
2020-03-18 03:00:00 5 6 Este 12 Este 0 -- -- 91
2020-03-18 02:00:00 4.9 7 Este -- -- 0 -- -- 94
2020-03-18 01:00:00 -- -- -- -- -- 0 -- -- --
2020-03-18 00:00:00 5 12 Este 21 Este 0 -- -- 96
2020-03-17 23:00:00 4.7 11 Este 24 Nordeste 0 -- -- 96
2020-03-17 22:00:00 4.9 12 Nordeste 27 Este 0 -- -- 97
2020-03-17 21:00:00 -- -- -- -- -- 0 -- -- --
2020-03-17 20:00:00 -- 15 Este 28 Nordeste 0 -- -- --
2020-03-17 19:00:00 5.8 12 Este 33 Este 0 -- -- 97
2020-03-17 18:00:00 6.1 14 Este 35 Este 0 -- -- 97
2020-03-17 17:00:00 6.8 12 Este 32 Nordeste 0 -- -- 97
2020-03-17 16:00:00 6.9 16 Este 39 Este 0 -- -- 97
2020-03-17 15:00:00 6.8 19 Este 50 Este 0 -- -- 97
2020-03-17 14:00:00 6.9 20 Este 45 Este 0 -- -- 97
2020-03-17 13:00:00 6.8 24 Este -- -- 0.8 -- -- 97
2020-03-17 12:00:00 7.2 21 Este 55 Este 0.8 -- -- 97
2020-03-17 11:00:00 7.1 25 Este 67 Este 2.4 -- -- 97
2020-03-17 10:00:00 7.2 21 Este 43 Este 3 -- -- 97
2020-03-17 09:00:00 7.2 22 Este 50 Este 2 -- -- 97
2020-03-17 08:00:00 -- -- -- -- -- -- -- -- --
2020-03-17 07:00:00 6.9 19 Este 51 Nordeste 1 -- -- 97
2020-03-17 06:00:00 6.7 22 Nordeste 60 Este 0.4 -- -- 97
2020-03-17 05:00:00 6.5 23 Este 51 Nordeste 1 -- -- 97
2020-03-17 04:00:00 6.8 23 Este 53 Nordeste 3 -- -- 97
2020-03-17 03:00:00 6.7 23 Este 52 Este 3.4 -- -- 97
2020-03-17 02:00:00 7 18 Este 47 Este 4.4 -- -- 97
2020-03-17 01:00:00 7.3 19 Este 42 Este 3.6 -- -- 97
2020-03-17 00:00:00 7.2 22 Este 45 Este 1.6 -- -- 97
2020-03-16 23:00:00 7.5 18 Este 52 Este 1.8 -- -- 97
2020-03-16 22:00:00 7.7 24 Este 58 Sudeste 4.4 -- -- 97
2020-03-16 21:00:00 7.6 25 Este 66 Este 2 -- -- 97
2020-03-16 20:00:00 7.5 35 Este 63 Este 1.6 -- -- 97
2020-03-16 19:00:00 7.8 25 Este 66 Este 5.4 -- -- 97
2020-03-16 18:00:00 8 29 Este 55 Este 2.8 -- -- 97
2020-03-16 17:00:00 8 27 Este 45 Este 6.2 -- -- 97
2020-03-16 16:00:00 7.3 22 Este 42 Este 2.2 -- -- 97
2020-03-16 15:00:00 6.5 12 Este 33 Este 2 -- -- 97
2020-03-16 14:00:00 6.7 12 Este 41 Este 2.4 -- -- 97
2020-03-16 13:00:00 6.7 26 Este 48 Este 2.6 -- -- 96
2020-03-16 12:00:00 5.9 14 Este 43 Nordeste 0.4 -- -- 97
2020-03-16 11:00:00 5.3 18 Este 49 Este 3.4 -- -- 97
2020-03-16 10:00:00 5.2 20 Este 39 Este 1.8 -- -- 96
2020-03-16 09:00:00 4.4 18 Este 38 Este 1.6 -- -- 96
2020-03-16 08:00:00 4.3 24 Este 53 Este 0.2 -- -- 96
2020-03-16 07:00:00 5.6 20 Este 40 Este 1.2 -- -- 96
2020-03-16 06:00:00 5.3 15 Este 29 Este 1 -- -- 96
2020-03-16 05:00:00 5.2 12 Este 22 Este 0.2 -- -- 96
2020-03-16 04:00:00 5.1 8 Sudeste 32 Este 0.2 -- -- 96
2020-03-16 03:00:00 5.3 9 Este 31 Este 0 -- -- 95
2020-03-16 02:00:00 5.4 9 Sudeste 21 Este 0 -- -- 95
2020-03-16 01:00:00 5.7 6 Sudeste 19 Sudeste 0 -- -- 95
2020-03-16 00:00:00 5.7 5 Sudeste 24 Sur 0.2 -- -- 95
2020-03-15 23:00:00 5.7 7 Sudeste 31 Sudeste 0 -- -- 94
2020-03-15 22:00:00 5.7 12 Sudeste 34 Sudeste 0 -- -- 94
2020-03-15 21:00:00 6.2 10 Sudeste 27 Este 0 -- -- 95
2020-03-15 20:00:00 6 10 Este 24 Este 0 -- -- 95
2020-03-15 19:00:00 6.1 12 Sudeste 27 Este 0 -- -- 94
2020-03-15 18:00:00 7 13 Este 26 Este 0 -- -- 93
2020-03-15 17:00:00 8 11 Sudeste 28 Este 0 -- -- 92
2020-03-15 16:00:00 8.2 15 Este 29 Este 0 -- -- 93
2020-03-15 15:00:00 8.8 12 Este 30 Este 0 -- -- 88
2020-03-15 14:00:00 10 15 Este 28 Este 0 -- -- 79
2020-03-15 13:00:00 10 13 Este 28 Sudeste 0 -- -- 77
2020-03-15 12:00:00 10.6 11 Este 23 Este 0 -- -- 73
2020-03-15 11:00:00 11.5 11 Este 22 Este 0 -- -- 67
2020-03-15 10:00:00 10.6 9 Este 19 Este 0 -- -- 66
2020-03-15 09:00:00 9.2 7 Este 14 Este 0 -- -- 71
2020-03-15 08:00:00 7.3 3 Sudeste 12 Sudeste 0 -- -- 75
2020-03-15 07:00:00 5.4 4 Sudeste 10 Sudeste 0 -- -- 86
2020-03-15 06:00:00 5 0 Calma 5 Sudeste 0 -- -- 89
2020-03-15 05:00:00 5.7 0 Calma 5 Sudeste 0 -- -- 83
2020-03-15 04:00:00 7 0 Calma 13 Sur 0 -- -- 78
2020-03-15 03:00:00 7.3 4 Sudeste 12 Sudeste 0 -- -- 79
2020-03-15 02:00:00 6.5 2 Sudeste 5 Sudeste 0 -- -- 76
2020-03-15 01:00:00 6.6 0 Calma 5 Sudeste 0 -- -- 71
2020-03-15 00:00:00 7.6 3 Sudeste 6 Sudeste 0 -- -- 46
2020-03-14 23:00:00 7 2 Sudoeste 13 Oeste 0 -- -- 35
2020-03-14 22:00:00 7 9 Oeste 15 Noroeste 0 -- -- 38
2020-03-14 21:00:00 6.4 9 Oeste 13 Oeste 0 -- -- 47
2020-03-14 20:00:00 5.8 6 Oeste 10 Sudoeste 0 -- -- 49
2020-03-14 19:00:00 9.2 3 Oeste 10 Noroeste 0 -- -- 45
2020-03-14 18:00:00 11.7 3 Noroeste 15 Noroeste 0 -- -- 61
2020-03-14 17:00:00 13.4 9 Noroeste 22 Noroeste 0 -- -- 29
2020-03-14 16:00:00 14.4 8 Noroeste 24 Noroeste 0 -- -- 37
2020-03-14 15:00:00 14.6 6 Noroeste 17 Noroeste 0 -- -- 37
2020-03-14 14:00:00 14.4 6 Sudoeste 16 Sudoeste 0 -- -- 38
2020-03-14 13:00:00 12.8 7 Oeste 17 Noroeste 0 -- -- 47
2020-03-14 12:00:00 12 5 Norte 16 Oeste 0 -- -- 52
2020-03-14 11:00:00 11 9 Oeste 30 Noroeste 0 -- -- 60
2020-03-14 10:00:00 8.9 15 Oeste 28 Oeste 0 -- -- 74
2020-03-14 09:00:00 5.7 19 Oeste 32 Oeste 0 -- -- 89
2020-03-14 08:00:00 4.2 21 Oeste 33 Oeste 0 -- -- 92
2020-03-14 07:00:00 3 15 Oeste 29 Oeste 0 -- -- 93
2020-03-14 06:00:00 3.4 17 Oeste 26 Oeste 0 -- -- 91
2020-03-14 05:00:00 3.6 15 Oeste 24 Oeste 0 -- -- 92
2020-03-14 04:00:00 4.2 16 Oeste 24 Noroeste 0 -- -- 90
2020-03-14 03:00:00 5 16 Oeste 27 Oeste 0 -- -- 87
2020-03-14 02:00:00 5.6 19 Oeste 30 Oeste 0 -- -- 89
2020-03-14 01:00:00 5.9 21 Oeste 35 Oeste 0 -- -- 88
2020-03-14 00:00:00 6.4 15 Oeste 27 Oeste 0 -- -- 88
2020-03-13 23:00:00 7.2 10 Oeste 25 Noroeste 0 -- -- 83
2020-03-13 22:00:00 8 13 Oeste 23 Oeste 0 -- -- 83
2020-03-13 21:00:00 8.3 10 Noroeste 20 Noroeste 0 -- -- 86
2020-03-13 20:00:00 7.6 4 Oeste 10 Oeste 0 -- -- 89
2020-03-13 19:00:00 7.7 2 Oeste 9 Oeste 0 -- -- 86
2020-03-13 18:00:00 8.1 2 Sudeste 7 Sudeste 0 -- -- 87
2020-03-13 17:00:00 8.3 3 Sudeste 12 Sudeste 0 -- -- 86
2020-03-13 16:00:00 8.7 3 Este 13 Sudeste 0 -- -- 85
2020-03-13 15:00:00 9.6 4 Este 17 Este 0 -- -- 80
2020-03-13 14:00:00 9.9 8 Este 21 Sudeste 0 -- -- 76
2020-03-13 13:00:00 9.9 9 Sudeste 23 Este 0 -- -- 75
2020-03-13 12:00:00 9.8 9 Este 20 Este 0 -- -- 81
2020-03-13 11:00:00 9.8 6 Este 14 Este 0 -- -- 82
2020-03-13 10:00:00 9.9 5 Este 10 Este 0 -- -- 79
2020-03-13 09:00:00 8.4 3 Oeste 13 Oeste 0 -- -- 87
2020-03-13 08:00:00 5.8 10 Oeste 16 Oeste 0 -- -- 93
2020-03-13 07:00:00 6 11 Oeste 21 Oeste 0 -- -- 91
2020-03-13 06:00:00 6.4 14 Oeste 24 Oeste 0 -- -- 89
2020-03-13 05:00:00 6.9 17 Oeste 26 Oeste 0 -- -- 88
2020-03-13 04:00:00 7 15 Oeste 22 Oeste 0 -- -- 88
2020-03-13 03:00:00 7.4 13 Oeste 19 Oeste 0 -- -- 89
2020-03-13 02:00:00 8.2 12 Oeste 22 Oeste 0 -- -- 87
2020-03-13 01:00:00 9.4 11 Oeste 19 Oeste 0 -- -- 82
2020-03-13 00:00:00 11.1 8 Oeste 13 Oeste 0 -- -- 74
2020-03-12 23:00:00 11.7 9 Oeste 18 Oeste 0 -- -- 72
2020-03-12 22:00:00 12.6 10 Oeste 18 Oeste 0 -- -- 66
2020-03-12 21:00:00 13.4 3 Sudeste 8 Sur 0 -- -- 63
2020-03-12 20:00:00 13.6 3 Sudeste 10 Sudeste 0 -- -- 67
2020-03-12 19:00:00 15.3 3 Este 6 Este 0 -- -- 63
2020-03-12 18:00:00 17.7 4 Este 12 Este 0 -- -- 58
2020-03-12 17:00:00 19.7 6 Sudeste 15 Sudeste 0 -- -- 50
2020-03-12 16:00:00 20.6 8 Sudeste 18 Sudeste 0 -- -- 42
2020-03-12 15:00:00 20.9 7 Sudeste 21 Este 0 -- -- 42
2020-03-12 14:00:00 21.5 13 Este 27 Este 0 -- -- 40
2020-03-12 13:00:00 21.8 11 Este 22 Este 0 -- -- 38
2020-03-12 12:00:00 22.1 10 Este 20 Este 0 -- -- 33
2020-03-12 11:00:00 21.5 8 Este 15 Este 0 -- -- 33
2020-03-12 10:00:00 20.5 6 Este 10 Sudeste 0 -- -- 36
2020-03-12 09:00:00 19 4 Este 8 Este 0 -- -- 39
2020-03-12 08:00:00 14 6 Oeste 15 Oeste 0 -- -- 46
2020-03-12 07:00:00 13.3 12 Oeste 15 Oeste 0 -- -- 44
2020-03-12 06:00:00 12.8 11 Oeste 14 Oeste 0 -- -- 46
2020-03-12 05:00:00 13 12 Oeste 14 Oeste 0 -- -- 46
2020-03-12 04:00:00 13.5 10 Oeste 14 Oeste 0 -- -- 44
2020-03-12 03:00:00 14.7 9 Sudoeste 13 Sudoeste 0 -- -- 40
2020-03-12 02:00:00 14.6 10 Sudoeste 14 Sudoeste 0 -- -- 40
2020-03-12 01:00:00 13.4 7 Sudoeste 9 Sudoeste 0 -- -- 43
2020-03-12 00:00:00 14.5 6 Sur 9 Sur 0 -- -- 41
2020-03-11 23:00:00 12.8 6 Sudoeste 9 Sudoeste 0 -- -- 48
2020-03-11 22:00:00 12.8 6 Sur 11 Sur 0 -- -- 48
2020-03-11 21:00:00 12.8 6 Sudoeste 14 Sur 0 -- -- 50
2020-03-11 20:00:00 12.2 5 Sudoeste 12 Sudoeste 0 -- -- 58
2020-03-11 19:00:00 14.7 6 Sur 10 Sur 0 -- -- 54
2020-03-11 18:00:00 17.1 4 Sudeste 11 Sudeste 0 -- -- 49
2020-03-11 17:00:00 17.3 6 Este 22 Sudoeste 0 -- -- 48
2020-03-11 16:00:00 20.3 11 Oeste 24 Oeste 0 -- -- 22
2020-03-11 15:00:00 20.9 12 Oeste 26 Sudoeste 0 -- -- 21
2020-03-11 14:00:00 20.1 10 Oeste 26 Oeste 0 -- -- 25
2020-03-11 13:00:00 18.6 14 Oeste 27 Oeste 0 -- -- 30
2020-03-11 12:00:00 17 17 Oeste 28 Oeste 0 -- -- 36
2020-03-11 11:00:00 16.2 15 Oeste 34 Oeste 0 -- -- 38
2020-03-11 10:00:00 13.7 22 Oeste 37 Oeste 0 -- -- 50
2020-03-11 09:00:00 11.6 15 Oeste 28 Noroeste 0 -- -- 60
2020-03-11 08:00:00 10.2 18 Oeste 30 Oeste 0 -- -- 64
2020-03-11 07:00:00 9.3 19 Oeste 32 Oeste 0 -- -- 63
2020-03-11 06:00:00 9.9 12 Oeste 45 Noroeste 0 -- -- 63
2020-03-11 05:00:00 9.7 31 Noroeste 53 Noroeste 0 -- -- 56
2020-03-11 04:00:00 9.9 31 Oeste 47 Noroeste 0 -- -- 54
2020-03-11 03:00:00 9.1 15 Oeste 32 Oeste 0 -- -- 55
2020-03-11 02:00:00 9.5 18 Oeste 33 Oeste 0 -- -- 58
2020-03-11 01:00:00 9.5 19 Oeste 31 Oeste 0 -- -- 56
2020-03-11 00:00:00 9.6 17 Oeste 24 Oeste 0 -- -- 54
2020-03-10 23:00:00 10.6 12 Oeste 24 Noroeste 0 -- -- 51
2020-03-10 22:00:00 11.6 13 Oeste 28 Oeste 0 -- -- 50
2020-03-10 21:00:00 12.6 13 Oeste 29 Oeste 0 -- -- 51
2020-03-10 20:00:00 13 16 Oeste 35 Oeste 0 -- -- 48
2020-03-10 19:00:00 13.8 23 Oeste 42 Oeste 0 -- -- 44
2020-03-10 18:00:00 14.7 27 Noroeste 48 Oeste 0 -- -- 40
2020-03-10 17:00:00 15.3 25 Oeste 49 Oeste 0 -- -- 35
2020-03-10 16:00:00 14.2 32 Oeste 53 Oeste 0 -- -- 32
2020-03-10 15:00:00 13.6 28 Noroeste 57 Noroeste 0 -- -- 33
2020-03-10 14:00:00 12.3 30 Oeste 52 Noroeste 0 -- -- 35
2020-03-10 13:00:00 11.5 29 Noroeste 58 Oeste 0 -- -- 35
2020-03-10 12:00:00 10.3 37 Oeste 65 Noroeste 0 -- -- 38
2020-03-10 11:00:00 9.1 38 Noroeste 64 Oeste 0 -- -- 37
2020-03-10 10:00:00 8.4 34 Oeste 63 Oeste 0 -- -- 40
2020-03-10 09:00:00 7.4 42 Oeste 69 Oeste 0 -- -- 39
2020-03-10 08:00:00 5.9 42 Oeste 69 Noroeste 0 -- -- 41
2020-03-10 07:00:00 4.7 40 Oeste 71 Oeste 0 -- -- 52
2020-03-10 06:00:00 4.3 41 Oeste 68 Oeste 0 -- -- 55
2020-03-10 05:00:00 3.6 38 Oeste 65 Oeste 0 -- -- 64
2020-03-10 04:00:00 2.6 31 Oeste 58 Oeste 0 -- -- 75
2020-03-10 03:00:00 2.4 32 Oeste 60 Noroeste 0 -- -- 75
2020-03-10 02:00:00 2.4 35 Oeste 63 Noroeste 0 -- -- 79
2020-03-10 01:00:00 2.5 38 Noroeste 67 Oeste 0 -- -- 78
2020-03-10 00:00:00 2.4 44 Noroeste 83 Noroeste 0 -- -- 76
2020-03-09 23:00:00 2.6 47 Noroeste 86 Noroeste 0 -- -- 77
2020-03-09 22:00:00 3 53 Noroeste 98 Noroeste 0 -- -- 81
2020-03-09 21:00:00 3.6 54 Noroeste 107 Oeste 0 -- -- 78
2020-03-09 20:00:00 4 58 Noroeste 112 Noroeste 0 -- -- 74
2020-03-09 19:00:00 4.6 58 Noroeste 115 Noroeste 0 -- -- 70
2020-03-09 18:00:00 5.7 54 Noroeste 100 Oeste 0 -- -- 65
2020-03-09 17:00:00 6.7 55 Noroeste 99 Noroeste 0 -- -- 60
2020-03-09 16:00:00 7.5 60 Oeste 102 Oeste 0 -- -- 53
2020-03-09 15:00:00 7 55 Oeste 101 Noroeste 0 -- -- 56
2020-03-09 14:00:00 7.1 56 Noroeste 102 Oeste 0 -- -- 58
2020-03-09 13:00:00 7.1 58 Noroeste 99 Noroeste 0 -- -- 59
2020-03-09 12:00:00 4.8 55 Oeste 101 Noroeste 0 -- -- 68
2020-03-09 11:00:00 4.1 55 Noroeste 97 Noroeste 0 -- -- 70
2020-03-09 10:00:00 3.1 53 Noroeste 98 Oeste 0 -- -- 73
2020-03-09 09:00:00 2.6 66 Noroeste 105 Noroeste 0 -- -- 77
2020-03-09 08:00:00 2.9 58 Noroeste 95 Oeste 0 -- -- 80
2020-03-09 07:00:00 3.2 52 Noroeste 93 Noroeste 0 -- -- 81
2020-03-09 06:00:00 3.5 58 Noroeste 91 Noroeste 0 -- -- 83
2020-03-09 05:00:00 3.7 55 Noroeste 94 Noroeste 0 -- -- 85
2020-03-09 04:00:00 4.5 47 Noroeste 81 Oeste 0 -- -- 83
2020-03-09 03:00:00 5.3 41 Oeste 73 Oeste 0 -- -- 82
2020-03-09 02:00:00 6.3 35 Oeste 65 Oeste 0 -- -- 69
2020-03-09 01:00:00 6.5 28 Oeste 50 Noroeste 0 -- -- 66
2020-03-09 00:00:00 7.5 27 Oeste 61 Noroeste 0 -- -- 61
2020-03-08 23:00:00 8.2 28 Oeste 55 Oeste 0 -- -- 57
2020-03-08 22:00:00 8.4 26 Oeste 52 Noroeste 0 -- -- 54
2020-03-08 21:00:00 8.5 20 Oeste 40 Oeste 0 -- -- 49
2020-03-08 20:00:00 8.1 9 Oeste 21 Oeste 0 -- -- 49
2020-03-08 19:00:00 9 8 Oeste 22 Oeste 0 -- -- 49
2020-03-08 18:00:00 10.8 13 Oeste 26 Noroeste 0 -- -- 45
2020-03-08 17:00:00 11.8 15 Oeste 28 Oeste 0 -- -- 41
2020-03-08 16:00:00 12.1 11 Oeste 35 Oeste 0 -- -- 37
2020-03-08 15:00:00 12.9 18 Oeste 33 Oeste 0 -- -- 36
2020-03-08 14:00:00 12.5 13 Oeste 31 Oeste 0 -- -- 44
2020-03-08 13:00:00 11.4 18 Oeste 33 Noroeste 0 -- -- 44
2020-03-08 12:00:00 10.4 15 Noroeste 42 Noroeste 0 -- -- 50
2020-03-08 11:00:00 8.9 27 Noroeste 44 Oeste 0 -- -- 51
2020-03-08 10:00:00 7.4 27 Oeste 48 Oeste 0 -- -- 57
2020-03-08 09:00:00 6.2 26 Oeste 40 Oeste 0 -- -- 62
2020-03-08 08:00:00 4.3 32 Oeste 47 Oeste 0 -- -- 68
2020-03-08 07:00:00 4.2 29 Oeste 47 Oeste 0 -- -- 71
2020-03-08 06:00:00 4.4 32 Oeste 46 Oeste 0 -- -- 72
2020-03-08 05:00:00 4.2 25 Oeste 38 Oeste 0 -- -- 73
2020-03-08 04:00:00 4 22 Oeste 36 Oeste 0 -- -- 74
2020-03-08 03:00:00 3.4 18 Oeste 48 Oeste 0 -- -- 79
2020-03-08 02:00:00 3.4 30 Oeste 60 Oeste 0 -- -- 79
2020-03-08 01:00:00 3.7 36 Oeste 66 Oeste 0 -- -- 78
2020-03-08 00:00:00 3.6 31 Oeste 61 Oeste 0 -- -- 81